»·PEaware :: SWA956 KPDX-KGEG

SWA956 :: KPDX-KGEG

FLIGHT INFORMATION

Flight Status: Arrived
Operator:
Southwest Airlines
More flights by this operator :: More flights under this callsign
Pilot: Herb P. (797)
Aircraft: BOEING 737-300
(B733)
More flights by this aircraft type
Origin: KPDX Portland Intl
United States
Destination: KGEG Spokane Intl
United States
More flights between these airports :: More routes between these airports
Route: +LAVAA6 YKM MWH ZOOMR1
File this flight plan on PilotEdge
Remarks:
Altitude:
(Current/Filed)
27,000ft
Speed:
(Current/Filed)
470kts
Departed: 08-May-18 01:22 PM
Arrived: 08-May-18 03:09 PM
Distance/Time
Traveled:
242nm/1:47
Distance/Time
To Go:
Arrived

Flight Plot

Page will automatically refresh every two minutes.

Flight plan parsing failed; only flown route is shown


Map Options




Map Legend


Flown Route
Filed Route
Departure Airport
Arrival Airport
Navaid (VOR, NDB)
Fix

Horizontal Profiles

Position Reports

Time Latitude Longitude Heading Altitude Ground
Speed
08-May-18 12:49 45.589833 -122.597332 208 36ft 0kts
08-May-18 12:50 45.589833 -122.597332 208 36ft 0kts
08-May-18 12:51 45.589833 -122.597332 208 36ft 0kts
08-May-18 12:52 45.589833 -122.597332 208 36ft 0kts
08-May-18 12:53 45.589833 -122.597332 208 36ft 0kts
08-May-18 12:54 45.589833 -122.597332 208 36ft 0kts
08-May-18 12:55 45.589833 -122.597332 208 36ft 0kts
08-May-18 12:56 45.589833 -122.597332 208 36ft 0kts
08-May-18 12:57 45.589833 -122.597332 208 36ft 0kts
08-May-18 12:58 45.589833 -122.597332 208 36ft 0kts
08-May-18 12:59 45.589833 -122.597332 208 36ft 0kts
08-May-18 13:00 45.589833 -122.597332 208 36ft 0kts
08-May-18 13:01 45.589833 -122.597332 208 36ft 0kts
08-May-18 13:02 45.589833 -122.597332 208 36ft 0kts
08-May-18 13:03 45.589833 -122.597332 208 36ft 0kts
08-May-18 13:04 45.589833 -122.597332 208 36ft 0kts
08-May-18 13:05 45.589833 -122.597332 208 36ft 0kts
08-May-18 13:06 45.589833 -122.597332 208 36ft 0kts
08-May-18 13:07 45.589833 -122.597332 208 36ft 0kts
08-May-18 13:08 45.589833 -122.597332 208 36ft 0kts
08-May-18 13:09 45.589833 -122.597332 208 36ft 0kts
08-May-18 13:10 45.589833 -122.597332 208 36ft 0kts
08-May-18 13:11 45.589833 -122.597332 208 36ft 0kts
08-May-18 13:12 45.589847 -122.597321 208 36ft 0kts
08-May-18 13:13 45.590164 -122.597279 162 36ft 0kts
08-May-18 13:14 45.590164 -122.597279 162 36ft 0kts
08-May-18 13:15 45.589949 -122.596765 93 36ft 1kts
08-May-18 13:16 45.591376 -122.599626 280 36ft 14kts
08-May-18 13:17 45.588478 -122.601149 117 36ft 15kts
08-May-18 13:18 45.586032 -122.594844 118 36ft 27kts
08-May-18 13:19 45.582286 -122.585265 118 36ft 26kts
08-May-18 13:20 45.581809 -122.584050 124 36ft 0kts
08-May-18 13:21 45.580822 -122.584602 280 36ft 18kts
08-May-18 13:22 45.594415 -122.618790 299 681ft 195kts
08-May-18 13:23 45.625959 -122.692682 300 2601ft 257kts
08-May-18 13:24 45.663592 -122.779035 323 5260ft 269kts
08-May-18 13:25 45.733018 -122.765673 32 7899ft 284kts
08-May-18 13:26 45.758541 -122.667064 93 10575ft 293kts
08-May-18 13:27 45.756454 -122.538866 94 11645ft 338kts
08-May-18 13:28 45.754788 -122.402727 94 13870ft 349kts
08-May-18 13:29 45.752996 -122.262555 94 16199ft 363kts
08-May-18 13:30 45.750958 -122.115587 95 18310ft 376kts
08-May-18 13:31 45.748762 -121.964131 95 20207ft 389kts
08-May-18 13:32 45.770143 -121.814184 53 21710ft 424kts
08-May-18 13:33 45.838226 -121.702530 52 23030ft 435kts
08-May-18 13:37 45.590412 -122.598961 208 36ft 0kts
08-May-18 13:53 45.590398 -122.598954 208 36ft 0kts
08-May-18 13:54 45.590398 -122.598954 208 36ft 0kts
08-May-18 13:55 45.590398 -122.598954 208 36ft 0kts
08-May-18 13:56 45.590398 -122.598954 208 36ft 0kts
08-May-18 13:57 45.590398 -122.598954 208 36ft 0kts
08-May-18 13:58 45.590398 -122.598954 208 36ft 0kts
08-May-18 13:59 45.590398 -122.598954 208 36ft 0kts
08-May-18 14:00 45.590398 -122.598954 208 36ft 0kts
08-May-18 14:01 45.590398 -122.598954 208 36ft 0kts
08-May-18 14:02 45.590398 -122.598954 208 36ft 0kts
08-May-18 14:03 45.590398 -122.598954 208 36ft 0kts
08-May-18 14:04 45.590398 -122.598954 208 36ft 0kts
08-May-18 14:05 45.590398 -122.598954 208 36ft 0kts
08-May-18 14:06 45.590398 -122.598954 208 36ft 0kts
08-May-18 14:07 45.590399 -122.598954 208 36ft 0kts
08-May-18 14:08 45.590836 -122.598249 268 36ft 0kts
08-May-18 14:09 45.590836 -122.598249 268 36ft 0kts
08-May-18 14:10 45.591409 -122.600099 269 36ft 14kts
08-May-18 14:11 45.588201 -122.600431 118 36ft 22kts
08-May-18 14:12 45.584895 -122.591932 118 36ft 24kts
08-May-18 14:13 45.581898 -122.584281 120 36ft 0kts
08-May-18 14:14 45.581898 -122.584280 120 36ft 0kts
08-May-18 14:15 45.581898 -122.584280 120 36ft 0kts
08-May-18 14:16 45.581262 -122.583645 185 36ft 21kts
08-May-18 14:17 45.590295 -122.609256 298 206ft 179kts
08-May-18 14:18 45.620089 -122.678789 300 1228ft 249kts
08-May-18 14:19 45.655616 -122.765948 304 3109ft 264kts
08-May-18 14:20 45.720638 -122.775212 30 5536ft 273kts
08-May-18 14:21 45.757743 -122.691723 92 8104ft 275kts
08-May-18 14:22 45.756808 -122.576013 92 10251ft 306kts
08-May-18 14:23 45.755331 -122.446018 94 12084ft 344kts
08-May-18 14:24 45.753721 -122.306999 94 14515ft 357kts
08-May-18 14:25 45.751767 -122.162612 95 16791ft 371kts
08-May-18 14:26 45.749550 -122.013318 95 18842ft 383kts
08-May-18 14:27 45.752153 -121.860725 75 20607ft 407kts
08-May-18 14:28 45.822235 -121.729121 51 22206ft 429kts
08-May-18 14:29 45.900494 -121.597666 52 23495ft 439kts
08-May-18 14:30 45.980132 -121.463073 52 24874ft 450kts
08-May-18 14:31 46.061426 -121.325020 52 26158ft 460kts
08-May-18 14:32 46.140936 -121.189308 52 27011ft 476kts
08-May-18 14:33 46.230078 -121.042699 57 27000ft 502kts
08-May-18 14:34 46.318112 -120.884289 51 27048ft 515kts
08-May-18 14:35 46.407953 -120.729601 51 27066ft 514kts
08-May-18 14:36 46.495197 -120.577418 51 27067ft 514kts
08-May-18 14:37 46.585525 -120.418913 51 27060ft 513kts
08-May-18 14:38 46.676607 -120.260310 50 27066ft 514kts
08-May-18 14:39 46.767675 -120.101833 50 27117ft 513kts
08-May-18 14:40 46.858220 -119.943258 50 27264ft 514kts
08-May-18 14:40 46.933776 -119.811251 51 27170ft 512kts
08-May-18 14:41 47.023443 -119.652741 50 27075ft 506kts
08-May-18 14:43 47.110963 -119.496981 50 27101ft 478kts
08-May-18 14:44 47.191607 -119.352704 50 25977ft 454kts
08-May-18 14:45 47.236322 -119.203096 75 23703ft 428kts
08-May-18 14:46 47.270639 -119.040258 74 21221ft 411kts
08-May-18 14:47 47.303876 -118.885573 73 18742ft 394kts
08-May-18 14:48 47.336058 -118.737214 72 16259ft 375kts
08-May-18 14:49 47.366250 -118.594771 72 13780ft 359kts
08-May-18 14:50 47.395083 -118.458388 72 11322ft 344kts
08-May-18 14:51 47.420907 -118.331061 81 10989ft 321kts
08-May-18 14:52 47.429788 -118.206951 84 11021ft 302kts
08-May-18 14:53 47.438026 -118.084367 84 11019ft 302kts
08-May-18 14:54 47.446066 -117.963516 84 11018ft 302kts
08-May-18 14:55 47.454794 -117.837189 84 11013ft 319kts
08-May-18 14:56 47.487022 -117.718488 64 9869ft 307kts
08-May-18 14:57 47.523209 -117.610865 64 7875ft 282kts
08-May-18 14:58 47.555875 -117.511368 64 6997ft 276kts
08-May-18 14:59 47.588343 -117.408140 64 7010ft 282kts
08-May-18 15:00 47.631247 -117.314144 43 7011ft 282kts
08-May-18 15:01 47.686141 -117.233553 43 6673ft 284kts
08-May-18 15:02 47.750158 -117.205441 326 5256ft 263kts
08-May-18 15:03 47.788054 -117.281837 252 5011ft 248kts
08-May-18 15:04 47.747425 -117.345918 220 5034ft 208kts
08-May-18 15:05 47.708432 -117.401529 226 4637ft 188kts
08-May-18 15:06 47.676641 -117.449808 226 3689ft 162kts
08-May-18 15:07 47.645995 -117.496070 225 2830ft 157kts
08-May-18 15:08 47.622362 -117.531579 225 2382ft 54kts
08-May-18 15:09 47.619933 -117.537855 258 2382ft 13kts
08-May-18 15:10 47.623913 -117.533866 348 2382ft 22kts
08-May-18 15:11 47.624446 -117.535426 301 2382ft 0kts
08-May-18 15:12 47.624446 -117.535426 301 2382ft 0kts
08-May-18 15:13 47.624446 -117.535426 301 2382ft 0kts
08-May-18 15:14 47.624446 -117.535426 301 2382ft 0kts
08-May-18 15:15 47.624446 -117.535426 301 2382ft 0kts

Navigation Log

Ident Type
Flight plan parsing failed, navigation log unavailable